createdAt,value
2018-12-27T00:00:42.889Z,73.60
2018-12-27T00:03:12.433Z,70.63
2018-12-27T00:05:41.939Z,73.43
2018-12-27T00:08:11.420Z,70.30
2018-12-27T00:10:40.974Z,70.30
2018-12-27T00:13:10.588Z,67.17
2018-12-27T00:15:40.125Z,72.47
2018-12-27T00:18:10.164Z,77.50
2018-12-27T00:20:39.700Z,70.60
2018-12-27T00:23:09.273Z,62.70
2018-12-27T00:25:39.432Z,68.53
2018-12-27T00:28:08.967Z,63.37
2018-12-27T00:30:39.218Z,64.20
2018-12-27T00:33:09.179Z,67.50
2018-12-27T00:35:40.218Z,65.23
2018-12-27T00:38:10.115Z,61.43
2018-12-27T00:40:40.047Z,68.50
2018-12-27T00:43:09.854Z,64.43
2018-12-27T00:45:39.717Z,63.83
2018-12-27T00:48:09.577Z,69.40
2018-12-27T00:50:40.461Z,65.47
2018-12-27T00:53:10.295Z,65.73
2018-12-27T00:55:40.138Z,64.47
2018-12-27T00:58:10.004Z,64.10
2018-12-27T01:00:39.824Z,61.83
2018-12-27T01:03:11.295Z,60.37
2018-12-27T01:05:41.543Z,60.27
2018-12-27T01:08:11.417Z,59.33
2018-12-27T01:10:44.073Z,61.27
2018-12-27T01:13:13.910Z,57.73
2018-12-27T01:15:43.724Z,64.47
2018-12-27T01:18:13.740Z,63.97
2018-12-27T01:20:43.584Z,49.50
2018-12-27T01:23:13.463Z,58.23
2018-12-27T01:25:43.441Z,50.80
2018-12-27T01:28:13.367Z,61.17
2018-12-27T01:30:43.215Z,55.77
2018-12-27T01:33:18.745Z,55.83
2018-12-27T01:35:44.625Z,52.33
2018-12-27T01:38:14.467Z,41.63
2018-12-27T01:40:44.444Z,43.80
2018-12-27T01:43:14.319Z,41.07
2018-12-27T01:45:44.150Z,40.93
2018-12-27T01:48:14.048Z,40.90
2018-12-27T01:50:43.939Z,42.40
2018-12-27T01:53:13.802Z,38.87
2018-12-27T01:55:43.707Z,46.57
2018-12-27T01:58:13.552Z,49.50
2018-12-27T02:00:43.353Z,48.97
2018-12-27T02:03:13.376Z,45.93
2018-12-27T02:05:43.276Z,49.80
2018-12-27T02:08:13.099Z,46.03
2018-12-27T02:10:42.969Z,39.33
2018-12-27T02:13:12.836Z,52.93
2018-12-27T02:15:42.676Z,42.87
2018-12-27T02:18:12.629Z,43.43
2018-12-27T02:20:42.475Z,38.50
2018-12-27T02:23:12.356Z,35.50
2018-12-27T02:25:42.695Z,37.47
2018-12-27T02:28:12.562Z,41.77
2018-12-27T02:30:42.407Z,39.30
2018-12-27T02:33:12.258Z,36.03
2018-12-27T02:35:42.113Z,36.67
2018-12-27T02:38:11.935Z,40.20
2018-12-27T02:40:41.847Z,36.27
2018-12-27T02:43:11.680Z,39.47
2018-12-27T02:45:41.512Z,35.87
2018-12-27T02:48:11.857Z,43.60
2018-12-27T02:50:41.689Z,47.17
2018-12-27T02:53:11.480Z,41.77
2018-12-27T02:55:41.328Z,47.55
2018-12-27T02:58:11.199Z,44.08
2018-12-27T03:00:40.993Z,49.80
2018-12-27T03:03:10.908Z,49.10
2018-12-27T03:05:40.734Z,42.50
2018-12-27T03:08:10.566Z,49.85
2018-12-27T03:10:40.714Z,44.70
2018-12-27T03:13:10.578Z,43.83
2018-12-27T03:15:40.916Z,44.13
2018-12-27T03:18:10.768Z,47.27
2018-12-27T03:20:41.114Z,43.10
2018-12-27T03:23:10.939Z,46.35
2018-12-27T03:25:40.803Z,41.98
2018-12-27T03:28:10.632Z,49.95
2018-12-27T03:30:40.469Z,42.27
2018-12-27T03:33:10.441Z,48.20
2018-12-27T03:35:40.282Z,61.43
2018-12-27T03:38:10.110Z,43.78
2018-12-27T03:40:39.969Z,55.65
2018-12-27T03:43:09.799Z,44.35
2018-12-27T03:45:39.655Z,49.20
2018-12-27T03:48:09.539Z,43.08
2018-12-27T03:50:39.703Z,38.20
2018-12-27T03:53:09.536Z,49.80
2018-12-27T03:55:39.458Z,45.60
2018-12-27T03:58:09.267Z,46.58
2018-12-27T04:00:39.583Z,39.73
2018-12-27T04:03:09.465Z,44.33
2018-12-27T04:05:39.273Z,39.80
2018-12-27T04:08:09.107Z,42.58
2018-12-27T04:10:38.965Z,43.80
2018-12-27T04:13:08.808Z,50.55
2018-12-27T04:15:38.319Z,42.83
2018-12-27T04:18:08.023Z,43.42
2018-12-27T04:20:37.529Z,48.20
2018-12-27T04:23:06.994Z,42.40
2018-12-27T04:25:36.614Z,46.73
2018-12-27T04:28:06.128Z,44.08
2018-12-27T04:30:35.780Z,45.55
2018-12-27T04:33:10.267Z,48.42
2018-12-27T04:35:39.853Z,42.03
2018-12-27T04:38:09.361Z,43.20
2018-12-27T04:40:39.365Z,42.40
2018-12-27T04:43:08.936Z,42.90
2018-12-27T04:45:38.442Z,42.13
2018-12-27T04:48:07.978Z,40.08
2018-12-27T04:50:37.495Z,45.23
2018-12-27T04:53:07.058Z,49.73
2018-12-27T04:55:36.789Z,39.85
2018-12-27T04:58:06.294Z,42.85
2018-12-27T05:00:35.796Z,39.77
2018-12-27T05:03:05.340Z,40.90
2018-12-27T05:05:34.937Z,41.95
2018-12-27T05:08:04.873Z,42.43
2018-12-27T05:10:34.389Z,41.15
2018-12-27T05:13:03.881Z,46.57
2018-12-27T05:15:33.397Z,48.65
2018-12-27T05:18:03.695Z,45.03
2018-12-27T05:20:33.207Z,44.05
2018-12-27T05:23:02.692Z,47.45
2018-12-27T05:25:32.237Z,44.38
2018-12-27T05:28:01.816Z,45.98
2018-12-27T05:30:31.346Z,43.63
2018-12-27T05:33:00.836Z,50.60
2018-12-27T05:35:30.434Z,47.88
2018-12-27T05:37:59.932Z,43.45
2018-12-27T05:40:29.534Z,48.87
2018-12-27T05:42:59.052Z,46.85
2018-12-27T05:45:28.552Z,48.33
2018-12-27T05:47:58.065Z,49.83
2018-12-27T05:50:27.562Z,52.35
2018-12-27T05:52:57.076Z,51.80
2018-12-27T05:55:34.054Z,52.55
2018-12-27T05:57:57.854Z,53.10
2018-12-27T06:00:27.352Z,55.20
2018-12-27T06:02:56.936Z,53.27
2018-12-27T06:05:26.446Z,60.23
2018-12-27T06:07:55.940Z,55.15
2018-12-27T06:10:25.461Z,57.58
2018-12-27T06:12:54.979Z,54.75
2018-12-27T06:15:24.461Z,60.05
2018-12-27T06:17:53.989Z,58.67
2018-12-27T06:20:23.522Z,54.33
2018-12-27T06:22:53.001Z,54.57
2018-12-27T06:25:22.866Z,55.30
2018-12-27T06:27:52.434Z,54.33
2018-12-27T06:30:21.898Z,50.67
2018-12-27T06:32:51.423Z,55.90
2018-12-27T06:35:21.383Z,55.10
2018-12-27T06:37:50.976Z,50.67
2018-12-27T06:40:20.559Z,53.93
2018-12-27T06:42:50.075Z,51.85
2018-12-27T06:45:19.585Z,54.23
2018-12-27T06:47:49.450Z,51.75
2018-12-27T06:50:18.904Z,53.27
2018-12-27T06:52:48.421Z,56.00
2018-12-27T06:55:17.927Z,53.50
2018-12-27T06:57:47.416Z,65.70
2018-12-27T07:00:16.926Z,56.60
2018-12-27T07:02:46.447Z,61.50
2018-12-27T07:05:15.935Z,59.43
2018-12-27T07:07:45.427Z,62.03
2018-12-27T07:10:15.264Z,58.70
2018-12-27T07:12:44.754Z,56.25
2018-12-27T07:15:14.405Z,60.28
2018-12-27T07:17:43.927Z,63.70
2018-12-27T07:20:13.472Z,58.53
2018-12-27T07:22:42.970Z,63.20
2018-12-27T07:25:12.501Z,62.70
2018-12-27T07:27:42.020Z,58.92
2018-12-27T07:30:11.526Z,57.17
2018-12-27T07:32:41.231Z,65.50
2018-12-27T07:35:10.755Z,55.52
2018-12-27T07:37:40.281Z,54.60
2018-12-27T07:40:09.826Z,55.80
2018-12-27T07:42:39.326Z,53.57
2018-12-27T07:45:08.847Z,54.73
2018-12-27T07:47:38.400Z,65.32
2018-12-27T07:50:08.386Z,63.27
2018-12-27T07:52:37.887Z,64.65
2018-12-27T07:55:07.705Z,59.70
2018-12-27T07:57:37.224Z,60.12
2018-12-27T08:00:07.350Z,61.02
2018-12-27T08:02:36.888Z,58.30
2018-12-27T08:05:06.459Z,64.75
2018-12-27T08:07:35.952Z,63.78
2018-12-27T08:10:07.139Z,59.53
2018-12-27T08:12:36.638Z,62.90
2018-12-27T08:15:07.772Z,61.10
2018-12-27T08:17:37.507Z,59.93
2018-12-27T08:20:08.458Z,59.30
2018-12-27T08:22:37.965Z,63.25
2018-12-27T08:25:07.578Z,70.40
2018-12-27T08:27:37.067Z,62.15
2018-12-27T08:30:09.204Z,60.83
2018-12-27T08:32:39.388Z,60.67
2018-12-27T08:35:11.643Z,65.53
2018-12-27T08:37:40.132Z,55.90
2018-12-27T08:40:09.702Z,58.97
2018-12-27T08:42:39.238Z,62.40
2018-12-27T08:45:08.951Z,60.20
2018-12-27T08:47:38.516Z,66.03
2018-12-27T08:50:08.842Z,61.30
2018-12-27T08:52:38.358Z,59.50
2018-12-27T08:55:08.407Z,60.33
2018-12-27T08:57:37.910Z,60.75
2018-12-27T09:00:08.945Z,58.87
2018-12-27T09:02:38.505Z,62.30
2018-12-27T09:05:08.182Z,59.03
2018-12-27T09:07:37.719Z,56.15
2018-12-27T09:10:08.906Z,55.33
2018-12-27T09:12:38.412Z,63.15
2018-12-27T09:15:07.943Z,59.73
2018-12-27T09:17:37.478Z,61.95
2018-12-27T09:20:09.765Z,54.53
2018-12-27T09:22:39.783Z,58.23
2018-12-27T09:25:09.816Z,60.30
2018-12-27T09:27:39.410Z,53.90
2018-12-27T09:30:09.318Z,56.20
2018-12-27T09:32:38.838Z,60.17
2018-12-27T09:35:08.337Z,55.03
2018-12-27T09:37:37.934Z,57.80
2018-12-27T09:40:08.530Z,52.53
2018-12-27T09:42:38.059Z,58.50
2018-12-27T09:45:09.018Z,64.13
2018-12-27T09:47:38.591Z,65.07
2018-12-27T09:50:08.441Z,60.73
2018-12-27T09:52:37.985Z,60.20
2018-12-27T09:55:07.594Z,57.80
2018-12-27T09:57:37.162Z,55.80
2018-12-27T10:00:08.820Z,56.53
2018-12-27T10:02:38.377Z,61.10
2018-12-27T10:05:07.952Z,56.40
2018-12-27T10:07:37.472Z,56.43
2018-12-27T10:10:08.048Z,55.50
2018-12-27T10:12:37.614Z,58.40
2018-12-27T10:15:09.403Z,52.73
2018-12-27T10:17:39.013Z,58.30
2018-12-27T10:20:08.757Z,49.47
2018-12-27T10:22:38.384Z,54.67
2018-12-27T10:25:08.302Z,53.40
2018-12-27T10:27:37.838Z,55.17
2018-12-27T10:30:09.040Z,54.67
2018-12-27T10:32:39.010Z,52.70
2018-12-27T10:35:09.205Z,53.47
2018-12-27T10:37:38.685Z,53.97
2018-12-27T10:40:13.484Z,55.03
2018-12-27T10:42:43.054Z,57.60
2018-12-27T10:45:13.069Z,57.00
2018-12-27T10:47:42.931Z,49.23
2018-12-27T10:50:12.422Z,51.93
2018-12-27T10:52:41.995Z,51.50
2018-12-27T10:55:11.648Z,51.27
2018-12-27T10:57:41.216Z,55.77
2018-12-27T11:00:13.743Z,50.73
2018-12-27T11:02:43.324Z,51.90
2018-12-27T11:05:32.281Z,56.80
2018-12-27T11:08:02.453Z,52.83
2018-12-27T11:10:32.010Z,49.80
2018-12-27T11:13:01.582Z,49.50
2018-12-27T11:15:31.106Z,47.97
2018-12-27T11:18:00.716Z,58.23
2018-12-27T11:20:30.621Z,49.50
2018-12-27T11:23:00.231Z,52.77
2018-12-27T11:25:29.788Z,51.60
2018-12-27T11:27:59.414Z,57.47
2018-12-27T11:30:29.237Z,57.23
2018-12-27T11:32:58.803Z,73.83
2018-12-27T11:35:28.498Z,66.60
2018-12-27T11:37:58.375Z,59.57
2018-12-27T11:40:27.879Z,69.57
2018-12-27T11:42:57.897Z,57.40
2018-12-27T11:45:27.464Z,55.90
2018-12-27T11:47:57.008Z,58.33
2018-12-27T11:50:26.572Z,57.70
2018-12-27T11:52:56.277Z,59.87
2018-12-27T11:55:26.042Z,70.93
2018-12-27T11:57:55.578Z,56.13
2018-12-27T12:00:25.105Z,58.00
2018-12-27T12:02:54.613Z,53.07
2018-12-27T12:05:24.240Z,66.73
2018-12-27T12:07:53.801Z,57.17
2018-12-27T12:10:23.307Z,65.70
2018-12-27T12:12:52.929Z,56.10
2018-12-27T12:15:22.764Z,55.40
2018-12-27T12:17:52.287Z,60.17
2018-12-27T12:20:21.809Z,59.03
2018-12-27T12:22:51.397Z,56.33
2018-12-27T12:25:20.919Z,67.50
2018-12-27T12:27:50.450Z,58.23
2018-12-27T12:30:20.024Z,63.77
2018-12-27T12:32:49.534Z,64.80
2018-12-27T12:35:19.102Z,59.73
2018-12-27T12:37:49.917Z,65.47
2018-12-27T12:40:19.409Z,57.40
2018-12-27T12:42:48.973Z,55.27
2018-12-27T12:45:19.136Z,59.10
2018-12-27T12:47:48.661Z,63.60
2018-12-27T12:50:18.277Z,64.17
2018-12-27T12:52:54.143Z,60.80
2018-12-27T12:55:23.679Z,62.87
2018-12-27T12:57:53.159Z,73.97
2018-12-27T13:00:22.746Z,62.43
2018-12-27T13:02:52.596Z,63.83
2018-12-27T13:05:22.146Z,58.50
2018-12-27T13:07:51.699Z,53.40
2018-12-27T13:10:21.208Z,56.97
2018-12-27T13:12:50.705Z,50.33
2018-12-27T13:15:20.473Z,53.93
2018-12-27T13:17:50.066Z,60.20
2018-12-27T13:20:19.573Z,58.47
2018-12-27T13:22:49.106Z,63.60
2018-12-27T13:25:18.640Z,56.13
2018-12-27T13:27:48.143Z,50.33
2018-12-27T13:30:17.683Z,53.37
2018-12-27T13:32:47.646Z,54.67
2018-12-27T13:35:17.135Z,58.30
2018-12-27T13:37:46.776Z,64.10
2018-12-27T13:40:16.292Z,61.63
2018-12-27T13:42:45.817Z,65.03
2018-12-27T13:45:15.457Z,58.40
2018-12-27T13:47:44.947Z,58.00
2018-12-27T13:50:14.463Z,54.77
2018-12-27T13:52:44.065Z,64.13
2018-12-27T13:55:13.654Z,59.43
2018-12-27T13:57:43.179Z,58.07
2018-12-27T14:00:12.932Z,63.43
2018-12-27T14:02:48.175Z,65.23
2018-12-27T14:05:17.933Z,62.77
2018-12-27T14:07:47.506Z,57.47
2018-12-27T14:10:17.038Z,55.93
2018-12-27T14:12:46.598Z,62.57
2018-12-27T14:15:16.279Z,70.10
2018-12-27T14:17:46.091Z,63.63
2018-12-27T14:20:15.718Z,50.30
2018-12-27T14:22:45.486Z,63.03
2018-12-27T14:25:17.163Z,63.23
2018-12-27T14:27:46.655Z,54.00
2018-12-27T14:30:16.319Z,51.93
2018-12-27T14:32:45.802Z,52.30
2018-12-27T14:35:15.320Z,51.53
2018-12-27T14:37:44.920Z,59.23
2018-12-27T14:40:14.529Z,50.70
2018-12-27T14:42:44.062Z,62.93
2018-12-27T14:45:13.588Z,53.50
2018-12-27T14:47:43.261Z,49.47
2018-12-27T14:50:12.781Z,54.83
2018-12-27T14:52:42.353Z,60.27
2018-12-27T14:55:11.870Z,56.70
2018-12-27T14:57:41.377Z,51.53
2018-12-27T15:00:12.550Z,52.73
2018-12-27T15:02:42.127Z,57.70
2018-12-27T15:05:11.657Z,50.63
2018-12-27T15:07:41.219Z,55.60
2018-12-27T15:10:11.075Z,68.40
2018-12-27T15:12:40.627Z,57.57
2018-12-27T15:15:10.173Z,49.70
2018-12-27T15:17:39.724Z,55.33
2018-12-27T15:20:09.340Z,60.17
2018-12-27T15:22:38.939Z,59.53
2018-12-27T15:25:08.447Z,54.63
2018-12-27T15:27:38.410Z,49.60
2018-12-27T15:30:08.116Z,54.63
2018-12-27T15:32:37.634Z,56.67
2018-12-27T15:35:07.124Z,58.13
2018-12-27T15:37:36.669Z,73.33
2018-12-27T15:40:06.910Z,55.40
2018-12-27T15:42:36.446Z,65.10
2018-12-27T15:45:06.947Z,60.30
2018-12-27T15:47:36.429Z,57.83
2018-12-27T15:50:08.367Z,56.50
2018-12-27T15:52:38.395Z,51.40
2018-12-27T15:55:08.451Z,57.33
2018-12-27T15:57:37.948Z,57.27
2018-12-27T16:00:10.013Z,58.80
2018-12-27T16:02:39.513Z,55.20
2018-12-27T16:05:09.049Z,66.10
2018-12-27T16:07:38.952Z,64.97
2018-12-27T16:10:08.480Z,58.73
2018-12-27T16:12:38.021Z,63.20
2018-12-27T16:15:07.730Z,57.30
2018-12-27T16:17:37.303Z,72.40
2018-12-27T16:20:07.175Z,59.97
2018-12-27T16:22:37.030Z,59.37
2018-12-27T16:25:06.569Z,59.50
2018-12-27T16:27:36.081Z,62.20
2018-12-27T16:30:08.803Z,69.27
2018-12-27T16:32:38.298Z,63.93
2018-12-27T16:35:07.851Z,58.47
2018-12-27T16:37:37.744Z,67.90
2018-12-27T16:40:09.199Z,62.90
2018-12-27T16:42:38.700Z,59.77
2018-12-27T16:45:08.277Z,60.23
2018-12-27T16:47:37.799Z,62.27
2018-12-27T16:50:09.445Z,62.37
2018-12-27T16:52:39.468Z,63.00
2018-12-27T16:55:08.990Z,66.03
2018-12-27T16:57:38.515Z,55.83
2018-12-27T17:00:09.899Z,58.03
2018-12-27T17:02:39.422Z,58.47
2018-12-27T17:05:09.428Z,67.53
2018-12-27T17:07:38.979Z,69.70
2018-12-27T17:10:09.080Z,66.83
2018-12-27T17:12:38.698Z,66.93
2018-12-27T17:15:08.317Z,63.33
2018-12-27T17:17:37.823Z,61.30
2018-12-27T17:20:07.407Z,72.80
2018-12-27T17:22:36.964Z,69.07
2018-12-27T17:25:06.614Z,65.90
2018-12-27T17:27:36.153Z,64.73
2018-12-27T17:30:08.619Z,62.60
2018-12-27T17:32:38.131Z,69.83
2018-12-27T17:35:07.653Z,64.73
2018-12-27T17:37:37.360Z,66.87
2018-12-27T17:40:09.521Z,72.70
2018-12-27T17:42:39.073Z,64.17
2018-12-27T17:45:08.701Z,72.50
2018-12-27T17:47:38.228Z,68.43
2018-12-27T17:50:08.632Z,78.10
2018-12-27T17:52:38.536Z,71.80
2018-12-27T17:55:08.032Z,70.63
2018-12-27T17:57:37.538Z,70.00
2018-12-27T18:00:09.656Z,71.57
2018-12-27T18:02:39.176Z,67.47
2018-12-27T18:05:08.751Z,67.60
2018-12-27T18:07:38.300Z,67.77
2018-12-27T18:10:08.366Z,72.27
2018-12-27T18:12:37.912Z,82.73
2018-12-27T18:15:07.864Z,74.67
2018-12-27T18:17:37.436Z,70.20
2018-12-27T18:20:07.802Z,70.80
2018-12-27T18:22:37.328Z,80.07
2018-12-27T18:25:06.913Z,66.67
2018-12-27T18:27:36.484Z,70.90
2018-12-27T18:30:09.641Z,75.40
2018-12-27T18:32:40.392Z,74.40
2018-12-27T18:35:10.049Z,71.37
2018-12-27T18:37:40.047Z,68.10
2018-12-27T18:40:09.741Z,76.57
2018-12-27T18:42:39.327Z,79.67
2018-12-27T18:45:09.331Z,76.00
2018-12-27T18:47:38.871Z,77.00
2018-12-27T18:50:08.598Z,73.73
2018-12-27T18:52:38.335Z,64.27
2018-12-27T18:55:07.982Z,70.50
2018-12-27T18:57:37.550Z,69.63
2018-12-27T19:00:11.034Z,80.60
2018-12-27T19:02:42.049Z,78.77
2018-12-27T19:05:11.907Z,72.10
2018-12-27T19:07:45.045Z,79.53
2018-12-27T19:10:13.216Z,80.10
2018-12-27T19:13:10.337Z,73.47
2018-12-27T19:15:49.290Z,78.40
2018-12-27T19:18:23.596Z,85.90
2018-12-27T19:20:59.060Z,82.87
2018-12-27T19:23:30.505Z,81.33
2018-12-27T19:26:00.007Z,81.43
2018-12-27T19:28:29.522Z,78.73
2018-12-27T19:30:59.042Z,89.93
2018-12-27T19:33:28.621Z,87.60
2018-12-27T19:35:58.134Z,83.60
2018-12-27T19:38:27.670Z,79.20
2018-12-27T19:40:57.177Z,82.73
2018-12-27T19:43:26.727Z,88.57
2018-12-27T19:45:56.418Z,86.67
2018-12-27T19:48:25.908Z,83.27
2018-12-27T19:50:55.441Z,92.07
2018-12-27T19:53:25.000Z,80.30
2018-12-27T19:55:57.445Z,83.80
2018-12-27T19:58:27.015Z,82.03
2018-12-27T20:00:56.621Z,81.83
2018-12-27T20:03:26.594Z,83.33
2018-12-27T20:05:56.136Z,76.90
2018-12-27T20:08:26.129Z,77.67
2018-12-27T20:10:55.674Z,71.17
2018-12-27T20:13:25.594Z,79.00
2018-12-27T20:15:55.182Z,76.53
2018-12-27T20:18:24.724Z,77.27
2018-12-27T20:20:54.271Z,79.73
2018-12-27T20:23:23.915Z,70.33
2018-12-27T20:25:53.415Z,76.30
2018-12-27T20:28:22.928Z,76.13
2018-12-27T20:30:53.207Z,82.50
2018-12-27T20:33:22.718Z,68.57
2018-12-27T20:35:52.275Z,75.90
2018-12-27T20:38:21.786Z,77.47
2018-12-27T20:40:51.318Z,67.60
2018-12-27T20:43:20.821Z,72.47
2018-12-27T20:45:50.365Z,67.63
2018-12-27T20:48:19.872Z,76.37
2018-12-27T20:50:49.377Z,70.77
2018-12-27T20:53:19.126Z,76.57
2018-12-27T20:55:48.667Z,61.93
2018-12-27T20:58:18.204Z,70.37
2018-12-27T21:00:47.773Z,78.77
2018-12-27T21:03:17.837Z,68.13
2018-12-27T21:05:47.360Z,71.90
2018-12-27T21:08:16.945Z,64.87
2018-12-27T21:10:46.466Z,74.87
2018-12-27T21:13:16.009Z,70.90
2018-12-27T21:15:45.965Z,67.13
2018-12-27T21:18:15.541Z,74.67
2018-12-27T21:20:45.131Z,64.10
2018-12-27T21:23:14.703Z,63.33
2018-12-27T21:25:44.264Z,61.97
2018-12-27T21:28:13.920Z,58.20
2018-12-27T21:30:43.530Z,65.87
2018-12-27T21:33:13.064Z,64.80
2018-12-27T21:35:42.589Z,59.47
2018-12-27T21:38:12.339Z,60.10
2018-12-27T21:40:41.828Z,66.33
2018-12-27T21:43:11.340Z,64.80
2018-12-27T21:45:40.904Z,60.63
2018-12-27T21:48:10.419Z,57.10
2018-12-27T21:50:39.972Z,61.60
2018-12-27T21:53:09.527Z,56.77
2018-12-27T21:55:39.068Z,58.47
2018-12-27T21:58:08.602Z,59.73
2018-12-27T22:00:38.450Z,62.63
2018-12-27T22:03:08.002Z,61.93
2018-12-27T22:05:37.592Z,60.37
2018-12-27T22:08:07.167Z,58.40
2018-12-27T22:10:37.027Z,71.53
2018-12-27T22:13:06.542Z,57.27
2018-12-27T22:15:36.150Z,62.80
2018-12-27T22:18:05.687Z,62.47
2018-12-27T22:20:35.184Z,61.97
2018-12-27T22:23:04.896Z,62.13
2018-12-27T22:25:34.421Z,67.17
2018-12-27T22:28:03.948Z,63.53
2018-12-27T22:30:33.595Z,65.97
2018-12-27T22:33:03.311Z,69.77
2018-12-27T22:35:32.856Z,71.23
2018-12-27T22:38:02.411Z,68.93
2018-12-27T22:40:31.907Z,66.27
2018-12-27T22:43:01.461Z,71.37
2018-12-27T22:45:31.225Z,67.97
2018-12-27T22:48:01.099Z,74.37
2018-12-27T22:50:31.978Z,72.70
2018-12-27T22:53:01.505Z,72.43
2018-12-27T22:55:31.168Z,70.10
2018-12-27T22:58:00.709Z,69.90
2018-12-27T23:00:32.054Z,65.60
2018-12-27T23:03:01.609Z,77.93
2018-12-27T23:05:31.575Z,76.60
2018-12-27T23:08:01.117Z,79.00
2018-12-27T23:10:30.768Z,76.30
2018-12-27T23:13:00.438Z,75.80
2018-12-27T23:15:29.963Z,79.50
2018-12-27T23:17:59.511Z,74.70
2018-12-27T23:20:30.521Z,74.73
2018-12-27T23:23:00.288Z,75.03
2018-12-27T23:25:30.822Z,75.50
2018-12-27T23:28:00.359Z,82.20
2018-12-27T23:30:30.258Z,73.60
2018-12-27T23:32:59.772Z,81.20
2018-12-27T23:35:29.370Z,77.67
2018-12-27T23:37:58.964Z,82.63
2018-12-27T23:40:28.779Z,79.87
2018-12-27T23:42:58.434Z,81.07
2018-12-27T23:45:28.338Z,82.20
2018-12-27T23:48:01.760Z,79.80
2018-12-27T23:50:31.630Z,83.07
2018-12-27T23:53:01.234Z,79.07
2018-12-27T23:55:30.773Z,77.10
2018-12-27T23:58:00.385Z,79.43
